Ana Sayfa
METAR-TAF:

METAR-TAF

Havaalanları :

Esperance, Avustralya

Enlem: 33-41-04S, Boylam: 121-49-22E, yükseklik: 143 m

Güncel hava durumu gözlemi

Rapor saat 14:00 UTC de 1 saat ve 5 dakika önce yapıldı.
Rüzgar kuzeydan 13 kt
Sıcaklık 20°C
Nem 83%
Basınç 1013 hPa
Görüş mesafesi 10 km veya daha fazla
8300 ft yükseklikte parçalı bulutlu
12000 ft yükseklikte çok bulutlu

METAR: YESP 281400Z AUTO 01013KT 9999 // SCT083 OVC120 20/17 Q1013

Saat: 23:05 (15:05 UTC)


TAF: eksik

4.000'den fazla havaalanı için hava durumu gözlemleri ve tahminleri (METAR ve TAF raporları).

Kullanılabilir istasyonlar harita üzerinde sarı ve kırmızı noktalarla gösterilir.

İstasyonun adını görmek için fareyi noktanın üzerinde gezdirin.

Sonrasında hava gözlem ve tahminlerini görmek için tıklayın.

Haritayı değiştirmek için: yaklaştırmak için siyah artı işaretli yeşil düğmeye ve uzaklaştırmak için de eksi işaretli düğmeye hızla tıklayın; bitişik haritalar için yeşil okları kullanın.


METAR-TAF: